sensor_id;sensor_type;location;lat;lon;timestamp;pressure;altitude;pressure_sealevel;temperature;humidity
26220;BME280;13955;55.574;37.474;2022-11-15T00:01:49;99738.73;;;2.55;45.97
26220;BME280;13955;55.574;37.474;2022-11-15T00:04:37;99741.87;;;2.54;46.06
26220;BME280;13955;55.574;37.474;2022-11-15T00:07:25;99743.72;;;2.62;45.99
26220;BME280;13955;55.574;37.474;2022-11-15T00:10:12;99731.91;;;2.70;45.88
26220;BME280;13955;55.574;37.474;2022-11-15T00:13:03;99740.59;;;2.62;45.96
26220;BME280;13955;55.574;37.474;2022-11-15T00:15:49;99727.75;;;2.59;46.02
26220;BME280;13955;55.574;37.474;2022-11-15T00:18:38;99727.45;;;2.66;46.05
26220;BME280;13955;55.574;37.474;2022-11-15T00:21:26;99726.31;;;2.73;46.03
26220;BME280;13955;55.574;37.474;2022-11-15T00:24:14;99736.17;;;2.71;46.19
26220;BME280;13955;55.574;37.474;2022-11-15T00:27:02;99732.87;;;2.65;46.20
26220;BME280;13955;55.574;37.474;2022-11-15T00:29:50;99731.55;;;2.61;46.36
26220;BME280;13955;55.574;37.474;2022-11-15T00:32:38;99734.83;;;2.59;46.42
26220;BME280;13955;55.574;37.474;2022-11-15T00:35:26;99718.00;;;2.52;46.39
26220;BME280;13955;55.574;37.474;2022-11-15T00:38:14;99718.64;;;2.50;46.25
26220;BME280;13955;55.574;37.474;2022-11-15T00:41:03;99712.38;;;2.47;46.23
26220;BME280;13955;55.574;37.474;2022-11-15T00:43:52;99716.69;;;2.52;46.27
26220;BME280;13955;55.574;37.474;2022-11-15T00:46:40;99706.66;;;2.51;46.20
26220;BME280;13955;55.574;37.474;2022-11-15T00:49:28;99697.59;;;2.46;46.28
26220;BME280;13955;55.574;37.474;2022-11-15T00:52:16;99698.52;;;2.32;46.26
26220;BME280;13955;55.574;37.474;2022-11-15T00:55:05;99702.31;;;2.34;46.44
26220;BME280;13955;55.574;37.474;2022-11-15T00:57:53;99703.28;;;2.33;46.40
26220;BME280;13955;55.574;37.474;2022-11-15T01:00:41;99697.02;;;2.30;46.50
26220;BME280;13955;55.574;37.474;2022-11-15T01:03:29;99690.66;;;2.36;46.35
26220;BME280;13955;55.574;37.474;2022-11-15T01:06:18;99700.64;;;2.29;46.44
26220;BME280;13955;55.574;37.474;2022-11-15T01:09:05;99702.17;;;2.39;46.31
26220;BME280;13955;55.574;37.474;2022-11-15T01:11:53;99684.75;;;2.47;46.16
26220;BME280;13955;55.574;37.474;2022-11-15T01:14:41;99688.06;;;2.44;46.11
26220;BME280;13955;55.574;37.474;2022-11-15T01:17:30;99685.60;;;2.51;46.07
26220;BME280;13955;55.574;37.474;2022-11-15T01:20:19;99690.55;;;2.50;45.98
26220;BME280;13955;55.574;37.474;2022-11-15T01:23:07;99688.06;;;2.44;45.96
26220;BME280;13955;55.574;37.474;2022-11-15T01:25:59;99677.96;;;2.32;46.13
26220;BME280;13955;55.574;37.474;2022-11-15T01:28:48;99679.14;;;2.37;46.20
26220;BME280;13955;55.574;37.474;2022-11-15T01:31:36;99663.03;;;2.36;46.17
26220;BME280;13955;55.574;37.474;2022-11-15T01:34:24;99671.35;;;2.24;46.30
26220;BME280;13955;55.574;37.474;2022-11-15T01:37:12;99668.72;;;2.24;46.44
26220;BME280;13955;55.574;37.474;2022-11-15T01:40:00;99666.09;;;2.28;46.44
26220;BME280;13955;55.574;37.474;2022-11-15T01:42:48;99661.53;;;2.34;46.37
26220;BME280;13955;55.574;37.474;2022-11-15T01:45:36;99663.11;;;2.22;46.71
26220;BME280;13955;55.574;37.474;2022-11-15T01:48:27;99656.17;;;2.09;47.14
26220;BME280;13955;55.574;37.474;2022-11-15T01:51:17;99661.42;;;2.09;47.30
26220;BME280;13955;55.574;37.474;2022-11-15T01:54:08;99674.81;;;1.94;47.87
26220;BME280;13955;55.574;37.474;2022-11-15T01:56:59;99668.88;;;1.92;48.07
26220;BME280;13955;55.574;37.474;2022-11-15T01:59:47;99673.50;;;1.94;48.03
26220;BME280;13955;55.574;37.474;2022-11-15T02:02:36;99667.47;;;2.02;47.94
26220;BME280;13955;55.574;37.474;2022-11-15T02:05:24;99675.91;;;1.87;48.55
26220;BME280;13955;55.574;37.474;2022-11-15T02:08:12;99670.83;;;1.90;48.42
26220;BME280;13955;55.574;37.474;2022-11-15T02:11:03;99670.50;;;1.89;48.54
26220;BME280;13955;55.574;37.474;2022-11-15T02:13:50;99665.61;;;1.98;48.41
26220;BME280;13955;55.574;37.474;2022-11-15T02:23:31;99665.06;;;1.86;48.73
26220;BME280;13955;55.574;37.474;2022-11-15T02:32:44;99653.27;;;1.90;48.53
26220;BME280;13955;55.574;37.474;2022-11-15T02:35:38;99645.89;;;1.98;48.49
26220;BME280;13955;55.574;37.474;2022-11-15T02:44:36;99642.22;;;1.87;49.07
26220;BME280;13955;55.574;37.474;2022-11-15T02:47:20;99639.36;;;1.76;49.52
26220;BME280;13955;55.574;37.474;2022-11-15T02:50:11;99645.61;;;1.75;49.53
26220;BME280;13955;55.574;37.474;2022-11-15T02:53:00;99645.75;;;1.73;49.55
26220;BME280;13955;55.574;37.474;2022-11-15T02:55:49;99645.03;;;1.89;49.18
26220;BME280;13955;55.574;37.474;2022-11-15T02:58:53;99643.89;;;1.92;49.05
26220;BME280;13955;55.574;37.474;2022-11-15T03:08:22;99627.17;;;1.71;49.02
26220;BME280;13955;55.574;37.474;2022-11-15T03:14:24;99623.18;;;1.63;49.29
26220;BME280;13955;55.574;37.474;2022-11-15T03:17:27;99624.39;;;1.46;49.71
26220;BME280;13955;55.574;37.474;2022-11-15T03:20:17;99621.53;;;1.58;49.44
26220;BME280;13955;55.574;37.474;2022-11-15T03:23:10;99623.22;;;1.67;49.38
26220;BME280;13955;55.574;37.474;2022-11-15T03:25:59;99617.51;;;1.71;49.33
26220;BME280;13955;55.574;37.474;2022-11-15T03:28:53;99610.95;;;1.75;49.22
26220;BME280;13955;55.574;37.474;2022-11-15T03:31:44;99610.91;;;1.67;49.39
26220;BME280;13955;55.574;37.474;2022-11-15T03:40:54;99607.31;;;1.46;50.01
26220;BME280;13955;55.574;37.474;2022-11-15T03:44:02;99614.42;;;1.50;49.96
26220;BME280;13955;55.574;37.474;2022-11-15T03:46:58;99619.05;;;1.56;49.95
26220;BME280;13955;55.574;37.474;2022-11-15T03:49:50;99612.30;;;1.53;49.92
26220;BME280;13955;55.574;37.474;2022-11-15T03:52:36;99612.30;;;1.53;50.03
26220;BME280;13955;55.574;37.474;2022-11-15T03:55:24;99610.22;;;1.61;49.93
26220;BME280;13955;55.574;37.474;2022-11-15T03:58:12;99600.43;;;1.75;49.70
26220;BME280;13955;55.574;37.474;2022-11-15T04:01:00;99600.74;;;1.68;49.78
26220;BME280;13955;55.574;37.474;2022-11-15T04:03:48;99603.64;;;1.61;49.97
26220;BME280;13955;55.574;37.474;2022-11-15T04:06:36;99603.02;;;1.67;49.90
26220;BME280;13955;55.574;37.474;2022-11-15T04:09:23;99593.50;;;1.70;49.82
26220;BME280;13955;55.574;37.474;2022-11-15T04:12:12;99593.76;;;1.85;49.63
26220;BME280;13955;55.574;37.474;2022-11-15T04:15:07;99593.94;;;1.88;49.50
26220;BME280;13955;55.574;37.474;2022-11-15T04:17:57;99595.93;;;1.94;49.42
26220;BME280;13955;55.574;37.474;2022-11-15T04:20:44;99601.19;;;1.94;49.44
26220;BME280;13955;55.574;37.474;2022-11-15T04:23:50;99601.02;;;1.95;49.33
26220;BME280;13955;55.574;37.474;2022-11-15T04:26:56;99596.25;;;1.91;49.31
26220;BME280;13955;55.574;37.474;2022-11-15T04:29:44;99591.27;;;1.80;49.13
26220;BME280;13955;55.574;37.474;2022-11-15T04:32:32;99590.87;;;1.66;49.07
26220;BME280;13955;55.574;37.474;2022-11-15T04:35:20;99589.19;;;1.61;49.29
26220;BME280;13955;55.574;37.474;2022-11-15T04:38:09;99597.03;;;1.57;49.31
26220;BME280;13955;55.574;37.474;2022-11-15T04:40:57;99586.92;;;1.40;49.33
26220;BME280;13955;55.574;37.474;2022-11-15T04:43:45;99586.47;;;1.45;49.38
26220;BME280;13955;55.574;37.474;2022-11-15T04:46:33;99584.61;;;1.37;49.40
26220;BME280;13955;55.574;37.474;2022-11-15T04:49:20;99576.17;;;1.29;49.60
26220;BME280;13955;55.574;37.474;2022-11-15T04:52:08;99570.60;;;1.28;49.86
26220;BME280;13955;55.574;37.474;2022-11-15T04:54:56;99565.45;;;1.49;49.55
26220;BME280;13955;55.574;37.474;2022-11-15T04:57:44;99562.14;;;1.69;49.32
26220;BME280;13955;55.574;37.474;2022-11-15T05:00:33;99570.44;;;1.56;49.54
26220;BME280;13955;55.574;37.474;2022-11-15T05:03:21;99559.78;;;1.58;49.43
26220;BME280;13955;55.574;37.474;2022-11-15T05:06:27;99564.59;;;1.70;49.35
26220;BME280;13955;55.574;37.474;2022-11-15T05:09:15;99563.09;;;1.68;49.35
26220;BME280;13955;55.574;37.474;2022-11-15T05:12:04;99558.34;;;1.67;49.38
26220;BME280;13955;55.574;37.474;2022-11-15T05:14:52;99561.31;;;1.68;49.48
26220;BME280;13955;55.574;37.474;2022-11-15T05:17:40;99552.55;;;1.60;49.72
26220;BME280;13955;55.574;37.474;2022-11-15T05:20:28;99550.09;;;1.58;49.91
26220;BME280;13955;55.574;37.474;2022-11-15T05:23:15;99556.16;;;1.59;49.96
26220;BME280;13955;55.574;37.474;2022-11-15T05:26:04;99562.56;;;1.60;49.93
26220;BME280;13955;55.574;37.474;2022-11-15T05:28:59;99565.77;;;1.76;49.73
26220;BME280;13955;55.574;37.474;2022-11-15T05:31:43;99560.58;;;1.88;49.48
26220;BME280;13955;55.574;37.474;2022-11-15T05:34:32;99560.14;;;2.05;49.31
26220;BME280;13955;55.574;37.474;2022-11-15T05:37:20;99567.04;;;2.02;49.19
26220;BME280;13955;55.574;37.474;2022-11-15T05:40:08;99558.77;;;1.85;49.40
26220;BME280;13955;55.574;37.474;2022-11-15T05:42:57;99555.75;;;1.75;49.58
26220;BME280;13955;55.574;37.474;2022-11-15T05:45:48;99555.71;;;1.67;49.56
26220;BME280;13955;55.574;37.474;2022-11-15T05:48:39;99547.15;;;1.65;49.59
26220;BME280;13955;55.574;37.474;2022-11-15T05:51:28;99540.30;;;1.72;49.38
26220;BME280;13955;55.574;37.474;2022-11-15T05:54:17;99548.47;;;1.65;49.44
26220;BME280;13955;55.574;37.474;2022-11-15T05:57:06;99537.52;;;1.78;49.41
26220;BME280;13955;55.574;37.474;2022-11-15T05:59:55;99543.48;;;1.88;49.26
26220;BME280;13955;55.574;37.474;2022-11-15T06:02:44;99539.92;;;2.02;49.12
26220;BME280;13955;55.574;37.474;2022-11-15T06:05:32;99531.55;;;2.14;48.71
26220;BME280;13955;55.574;37.474;2022-11-15T06:08:20;99537.44;;;2.00;48.76
26220;BME280;13955;55.574;37.474;2022-11-15T06:11:08;99539.13;;;2.09;48.81
26220;BME280;13955;55.574;37.474;2022-11-15T06:13:57;99531.34;;;1.95;48.93
26220;BME280;13955;55.574;37.474;2022-11-15T06:16:45;99532.65;;;1.91;49.17
26220;BME280;13955;55.574;37.474;2022-11-15T06:19:33;99529.34;;;1.85;49.20
26220;BME280;13955;55.574;37.474;2022-11-15T06:22:21;99533.87;;;1.67;49.49
26220;BME280;13955;55.574;37.474;2022-11-15T06:25:09;99530.28;;;1.72;49.60
26220;BME280;13955;55.574;37.474;2022-11-15T06:27:58;99527.79;;;1.66;49.70
26220;BME280;13955;55.574;37.474;2022-11-15T06:30:46;99521.54;;;1.63;49.76
26220;BME280;13955;55.574;37.474;2022-11-15T06:33:34;99520.72;;;1.67;49.76
26220;BME280;13955;55.574;37.474;2022-11-15T06:36:22;99516.03;;;1.87;49.56
26220;BME280;13955;55.574;37.474;2022-11-15T06:39:10;99517.34;;;1.83;49.76
26220;BME280;13955;55.574;37.474;2022-11-15T06:41:57;99508.61;;;1.78;49.88
26220;BME280;13955;55.574;37.474;2022-11-15T06:44:45;99509.13;;;1.90;49.78
26220;BME280;13955;55.574;37.474;2022-11-15T06:47:33;99506.25;;;2.09;49.50
26220;BME280;13955;55.574;37.474;2022-11-15T06:50:21;99503.95;;;2.10;49.40
26220;BME280;13955;55.574;37.474;2022-11-15T06:53:09;99500.81;;;2.11;49.32
26220;BME280;13955;55.574;37.474;2022-11-15T06:56:05;99491.75;;;1.97;49.28
26220;BME280;13955;55.574;37.474;2022-11-15T06:58:54;99490.70;;;1.82;49.46
26220;BME280;13955;55.574;37.474;2022-11-15T07:01:43;99488.42;;;1.87;49.40
26220;BME280;13955;55.574;37.474;2022-11-15T07:04:30;99486.14;;;1.88;49.42
26220;BME280;13955;55.574;37.474;2022-11-15T07:07:18;99486.64;;;1.91;49.37
26220;BME280;13955;55.574;37.474;2022-11-15T07:10:07;99482.24;;;2.04;49.25
26220;BME280;13955;55.574;37.474;2022-11-15T07:12:56;99477.47;;;2.08;49.17
26220;BME280;13955;55.574;37.474;2022-11-15T07:15:44;99486.02;;;2.14;49.05
26220;BME280;13955;55.574;37.474;2022-11-15T07:18:34;99477.66;;;2.18;48.95
26220;BME280;13955;55.574;37.474;2022-11-15T07:21:22;99470.09;;;2.28;48.95
26220;BME280;13955;55.574;37.474;2022-11-15T07:24:10;99475.53;;;2.30;48.80
26220;BME280;13955;55.574;37.474;2022-11-15T07:26:58;99480.44;;;2.17;48.82
26220;BME280;13955;55.574;37.474;2022-11-15T07:29:45;99480.95;;;2.33;48.67
26220;BME280;13955;55.574;37.474;2022-11-15T07:32:34;99473.39;;;2.30;48.90
26220;BME280;13955;55.574;37.474;2022-11-15T07:35:23;99470.29;;;2.42;48.71
26220;BME280;13955;55.574;37.474;2022-11-15T07:38:11;99472.91;;;2.26;48.87
26220;BME280;13955;55.574;37.474;2022-11-15T07:41:04;99464.52;;;2.27;49.00
26220;BME280;13955;55.574;37.474;2022-11-15T07:43:54;99459.08;;;2.16;49.04
26220;BME280;13955;55.574;37.474;2022-11-15T07:46:42;99449.05;;;2.28;49.04
26220;BME280;13955;55.574;37.474;2022-11-15T07:49:29;99454.33;;;2.32;49.00
26220;BME280;13955;55.574;37.474;2022-11-15T07:52:17;99441.33;;;2.38;48.80
26220;BME280;13955;55.574;37.474;2022-11-15T07:55:06;99436.58;;;2.26;49.00
26220;BME280;13955;55.574;37.474;2022-11-15T07:58:05;99437.39;;;2.18;49.17
26220;BME280;13955;55.574;37.474;2022-11-15T08:00:53;99434.59;;;2.15;49.42
26220;BME280;13955;55.574;37.474;2022-11-15T08:03:41;99433.24;;;2.03;49.64
26220;BME280;13955;55.574;37.474;2022-11-15T08:06:29;99429.48;;;2.10;49.75
26220;BME280;13955;55.574;37.474;2022-11-15T08:09:17;99424.05;;;2.19;49.46
26220;BME280;13955;55.574;37.474;2022-11-15T08:12:05;99421.59;;;2.22;49.36
26220;BME280;13955;55.574;37.474;2022-11-15T08:14:53;99415.03;;;2.26;49.24
26220;BME280;13955;55.574;37.474;2022-11-15T08:17:40;99411.73;;;2.16;49.58
26220;BME280;13955;55.574;37.474;2022-11-15T08:20:29;99416.17;;;2.28;49.75
26220;BME280;13955;55.574;37.474;2022-11-15T08:23:17;99416.50;;;2.33;49.70
26220;BME280;13955;55.574;37.474;2022-11-15T08:26:06;99409.61;;;2.32;49.46
26220;BME280;13955;55.574;37.474;2022-11-15T08:28:53;99411.73;;;2.24;49.62
26220;BME280;13955;55.574;37.474;2022-11-15T08:31:41;99411.73;;;2.40;49.52
26220;BME280;13955;55.574;37.474;2022-11-15T08:34:29;99409.27;;;2.63;49.02
26220;BME280;13955;55.574;37.474;2022-11-15T08:37:17;99403.00;;;2.64;48.78
26220;BME280;13955;55.574;37.474;2022-11-15T08:40:06;99400.36;;;2.60;48.85
26220;BME280;13955;55.574;37.474;2022-11-15T08:42:54;99393.95;;;2.67;48.96
26220;BME280;13955;55.574;37.474;2022-11-15T08:45:42;99391.89;;;2.98;48.62
26220;BME280;13955;55.574;37.474;2022-11-15T08:48:30;99393.69;;;3.09;48.29
26220;BME280;13955;55.574;37.474;2022-11-15T08:51:18;99390.08;;;2.98;48.20
26220;BME280;13955;55.574;37.474;2022-11-15T08:54:06;99392.24;;;2.99;48.13
26220;BME280;13955;55.574;37.474;2022-11-15T08:56:54;99390.45;;;2.91;48.22
26220;BME280;13955;55.574;37.474;2022-11-15T08:59:41;99378.80;;;2.73;48.46
26220;BME280;13955;55.574;37.474;2022-11-15T09:02:30;99382.91;;;2.80;48.56
26220;BME280;13955;55.574;37.474;2022-11-15T09:05:18;99387.65;;;2.84;48.50
26220;BME280;13955;55.574;37.474;2022-11-15T09:08:06;99379.43;;;2.79;48.55
26220;BME280;13955;55.574;37.474;2022-11-15T09:10:54;99376.17;;;2.77;48.62
26220;BME280;13955;55.574;37.474;2022-11-15T09:13:42;99379.43;;;2.79;48.65
26220;BME280;13955;55.574;37.474;2022-11-15T09:16:31;99371.55;;;2.75;48.89
26220;BME280;13955;55.574;37.474;2022-11-15T09:19:18;99374.98;;;2.84;48.85
26220;BME280;13955;55.574;37.474;2022-11-15T09:22:07;99370.20;;;2.92;48.72
26220;BME280;13955;55.574;37.474;2022-11-15T09:24:55;99369.88;;;2.91;48.58
26220;BME280;13955;55.574;37.474;2022-11-15T09:27:43;99360.98;;;2.92;48.54
26220;BME280;13955;55.574;37.474;2022-11-15T09:30:31;99365.77;;;2.84;48.64
26220;BME280;13955;55.574;37.474;2022-11-15T09:33:19;99360.21;;;2.75;48.89
26220;BME280;13955;55.574;37.474;2022-11-15T09:36:08;99355.78;;;2.67;49.03
26220;BME280;13955;55.574;37.474;2022-11-15T09:38:58;99360.23;;;2.66;49.01
26220;BME280;13955;55.574;37.474;2022-11-15T09:50:50;99336.26;;;2.33;49.97
26220;BME280;13955;55.574;37.474;2022-11-15T09:53:26;99333.79;;;2.35;50.20
26220;BME280;13955;55.574;37.474;2022-11-15T09:55:58;99329.33;;;2.44;50.14
26220;BME280;13955;55.574;37.474;2022-11-15T10:01:29;99328.00;;;2.52;50.07
26220;BME280;13955;55.574;37.474;2022-11-15T10:03:53;99326.98;;;2.65;49.83
26220;BME280;13955;55.574;37.474;2022-11-15T10:06:27;99322.56;;;2.62;49.74
26220;BME280;13955;55.574;37.474;2022-11-15T10:09:15;99315.80;;;2.68;49.88
26220;BME280;13955;55.574;37.474;2022-11-15T10:11:45;99313.82;;;2.65;49.64
26220;BME280;13955;55.574;37.474;2022-11-15T10:14:19;99312.03;;;2.66;49.58
26220;BME280;13955;55.574;37.474;2022-11-15T10:20:00;99311.82;;;2.76;49.55
26220;BME280;13955;55.574;37.474;2022-11-15T10:22:47;99311.72;;;2.61;49.62
26220;BME280;13955;55.574;37.474;2022-11-15T10:25:26;99312.84;;;2.66;49.65
26220;BME280;13955;55.574;37.474;2022-11-15T10:28:36;99306.34;;;2.94;49.37
26220;BME280;13955;55.574;37.474;2022-11-15T10:30:47;99304.75;;;3.11;49.02
26220;BME280;13955;55.574;37.474;2022-11-15T10:33:21;99305.32;;;3.30;48.72
26220;BME280;13955;55.574;37.474;2022-11-15T10:41:35;99291.83;;;3.56;48.17
26220;BME280;13955;55.574;37.474;2022-11-15T10:49:36;99272.73;;;3.54;48.09
26220;BME280;13955;55.574;37.474;2022-11-15T10:52:20;99272.05;;;3.56;48.02
26220;BME280;13955;55.574;37.474;2022-11-15T10:55:01;99265.62;;;3.54;47.88
26220;BME280;13955;55.574;37.474;2022-11-15T10:57:36;99255.09;;;3.54;47.85
26220;BME280;13955;55.574;37.474;2022-11-15T11:03:03;99254.20;;;3.62;47.93
26220;BME280;13955;55.574;37.474;2022-11-15T11:05:37;99241.25;;;3.75;47.80
26220;BME280;13955;55.574;37.474;2022-11-15T11:11:00;99250.92;;;3.60;47.73
26220;BME280;13955;55.574;37.474;2022-11-15T11:13:34;99246.52;;;3.57;47.74
26220;BME280;13955;55.574;37.474;2022-11-15T11:18:59;99238.06;;;3.42;48.03
26220;BME280;13955;55.574;37.474;2022-11-15T11:24:30;99238.19;;;3.22;48.00
26220;BME280;13955;55.574;37.474;2022-11-15T11:40:47;99237.52;;;2.97;49.68
26220;BME280;13955;55.574;37.474;2022-11-15T11:43:52;99237.56;;;2.84;50.42
26220;BME280;13955;55.574;37.474;2022-11-15T11:46:31;99236.41;;;2.87;50.64
26220;BME280;13955;55.574;37.474;2022-11-15T11:49:09;99230.44;;;2.66;51.50
26220;BME280;13955;55.574;37.474;2022-11-15T11:51:46;99229.34;;;2.44;52.90
26220;BME280;13955;55.574;37.474;2022-11-15T11:54:27;99232.57;;;2.15;54.85
26220;BME280;13955;55.574;37.474;2022-11-15T11:56:52;99227.95;;;2.09;55.83
26220;BME280;13955;55.574;37.474;2022-11-15T11:59:48;99222.56;;;2.02;57.02
26220;BME280;13955;55.574;37.474;2022-11-15T12:05:07;99218.13;;;1.94;58.78
26220;BME280;13955;55.574;37.474;2022-11-15T12:07:35;99213.05;;;1.89;59.93
26220;BME280;13955;55.574;37.474;2022-11-15T12:10:20;99214.39;;;1.85;60.61
26220;BME280;13955;55.574;37.474;2022-11-15T12:13:21;99208.45;;;1.78;61.15
26220;BME280;13955;55.574;37.474;2022-11-15T12:15:59;99206.02;;;1.77;61.28
26220;BME280;13955;55.574;37.474;2022-11-15T12:18:54;99211.27;;;1.77;61.53
26220;BME280;13955;55.574;37.474;2022-11-15T12:27:07;99192.55;;;1.64;62.71
26220;BME280;13955;55.574;37.474;2022-11-15T12:29:35;99195.16;;;1.76;62.22
26220;BME280;13955;55.574;37.474;2022-11-15T12:32:11;99184.98;;;1.77;62.75
26220;BME280;13955;55.574;37.474;2022-11-15T12:34:45;99188.25;;;1.83;62.77
26220;BME280;13955;55.574;37.474;2022-11-15T12:40:26;99185.59;;;2.04;62.16
26220;BME280;13955;55.574;37.474;2022-11-15T12:42:59;99176.86;;;2.03;62.14
26220;BME280;13955;55.574;37.474;2022-11-15T12:45:35;99162.27;;;1.96;62.41
26220;BME280;13955;55.574;37.474;2022-11-15T12:51:00;99158.52;;;1.78;63.51
26220;BME280;13955;55.574;37.474;2022-11-15T12:53:32;99154.25;;;1.73;63.50
26220;BME280;13955;55.574;37.474;2022-11-15T12:58:56;99151.66;;;1.61;64.11
26220;BME280;13955;55.574;37.474;2022-11-15T13:04:26;99141.81;;;1.63;64.36
26220;BME280;13955;55.574;37.474;2022-11-15T13:07:04;99138.69;;;1.64;64.33
26220;BME280;13955;55.574;37.474;2022-11-15T13:17:52;99124.59;;;1.52;65.19
26220;BME280;13955;55.574;37.474;2022-11-15T13:20:27;99126.88;;;1.55;65.62
26220;BME280;13955;55.574;37.474;2022-11-15T13:23:12;99123.25;;;1.61;65.68
26220;BME280;13955;55.574;37.474;2022-11-15T13:25:57;99117.30;;;1.71;65.56
26220;BME280;13955;55.574;37.474;2022-11-15T13:28:38;99121.91;;;1.77;65.72
26220;BME280;13955;55.574;37.474;2022-11-15T13:31:43;99120.42;;;1.70;66.14
26220;BME280;13955;55.574;37.474;2022-11-15T13:34:22;99115.84;;;1.64;66.63
26220;BME280;13955;55.574;37.474;2022-11-15T13:36:49;99114.06;;;1.61;66.87
26220;BME280;13955;55.574;37.474;2022-11-15T13:39:30;99110.12;;;1.61;66.90
26220;BME280;13955;55.574;37.474;2022-11-15T13:42:01;99099.92;;;1.62;67.11
26220;BME280;13955;55.574;37.474;2022-11-15T13:44:32;99100.08;;;1.60;67.20
26220;BME280;13955;55.574;37.474;2022-11-15T13:47:18;99102.39;;;1.63;67.33
26220;BME280;13955;55.574;37.474;2022-11-15T13:49:48;99096.30;;;1.67;67.37
26220;BME280;13955;55.574;37.474;2022-11-15T13:52:19;99092.05;;;1.66;67.61
26220;BME280;13955;55.574;37.474;2022-11-15T13:55:02;99093.52;;;1.64;67.85
26220;BME280;13955;55.574;37.474;2022-11-15T13:57:48;99087.28;;;1.61;68.03
26220;BME280;13955;55.574;37.474;2022-11-15T14:00:39;99081.87;;;1.59;68.20
26220;BME280;13955;55.574;37.474;2022-11-15T14:03:24;99074.64;;;1.57;68.38
26220;BME280;13955;55.574;37.474;2022-11-15T14:06:14;99076.77;;;1.61;68.39
26220;BME280;13955;55.574;37.474;2022-11-15T14:11:57;99080.24;;;1.58;68.95
26220;BME280;13955;55.574;37.474;2022-11-15T14:14:24;99067.44;;;1.50;69.21
26220;BME280;13955;55.574;37.474;2022-11-15T14:16:56;99072.50;;;1.52;69.15
26220;BME280;13955;55.574;37.474;2022-11-15T14:22:16;99066.92;;;1.59;68.82
26220;BME280;13955;55.574;37.474;2022-11-15T14:25:34;99063.31;;;1.56;69.44
26220;BME280;13955;55.574;37.474;2022-11-15T14:27:24;99061.83;;;1.66;69.32
26220;BME280;13955;55.574;37.474;2022-11-15T14:29:54;99060.48;;;1.70;69.37
26220;BME280;13955;55.574;37.474;2022-11-15T14:32:41;99058.02;;;1.76;68.84
26220;BME280;13955;55.574;37.474;2022-11-15T14:35:20;99049.63;;;1.77;68.79
26220;BME280;13955;55.574;37.474;2022-11-15T14:37:45;99050.13;;;1.76;68.78
26220;BME280;13955;55.574;37.474;2022-11-15T14:40:17;99042.40;;;1.75;68.90
26220;BME280;13955;55.574;37.474;2022-11-15T14:42:48;99042.23;;;1.76;69.25
26220;BME280;13955;55.574;37.474;2022-11-15T14:45:21;99038.14;;;1.74;69.46
26220;BME280;13955;55.574;37.474;2022-11-15T14:47:51;99034.39;;;1.68;69.72
26220;BME280;13955;55.574;37.474;2022-11-15T14:50:22;99029.13;;;1.68;69.81
26220;BME280;13955;55.574;37.474;2022-11-15T14:52:52;99026.78;;;1.73;69.57
26220;BME280;13955;55.574;37.474;2022-11-15T14:55:30;99020.94;;;1.63;69.81
26220;BME280;13955;55.574;37.474;2022-11-15T14:58:03;99029.76;;;1.70;69.80
26220;BME280;13955;55.574;37.474;2022-11-15T15:00:35;99021.22;;;1.76;69.33
26220;BME280;13955;55.574;37.474;2022-11-15T15:03:06;99020.22;;;1.73;69.49
26220;BME280;13955;55.574;37.474;2022-11-15T15:05:42;99015.95;;;1.76;69.56
26220;BME280;13955;55.574;37.474;2022-11-15T15:08:12;99014.30;;;1.80;69.40
26220;BME280;13955;55.574;37.474;2022-11-15T15:10:44;99016.42;;;1.80;69.53
26220;BME280;13955;55.574;37.474;2022-11-15T15:13:22;99010.20;;;1.77;69.85
26220;BME280;13955;55.574;37.474;2022-11-15T15:15:53;99011.67;;;1.80;69.83
26220;BME280;13955;55.574;37.474;2022-11-15T15:18:23;99008.54;;;1.80;70.17
26220;BME280;13955;55.574;37.474;2022-11-15T15:20:57;99010.52;;;1.82;70.51
26220;BME280;13955;55.574;37.474;2022-11-15T15:23:32;99013.77;;;1.88;70.47
26220;BME280;13955;55.574;37.474;2022-11-15T15:26:04;99005.72;;;1.86;70.46
26220;BME280;13955;55.574;37.474;2022-11-15T15:28:34;99008.08;;;1.72;70.68
26220;BME280;13955;55.574;37.474;2022-11-15T15:31:05;99005.30;;;1.70;70.66
26220;BME280;13955;55.574;37.474;2022-11-15T15:33:35;98998.25;;;1.66;70.62
26220;BME280;13955;55.574;37.474;2022-11-15T15:36:13;98996.28;;;1.64;70.54
26220;BME280;13955;55.574;37.474;2022-11-15T15:38:39;98992.16;;;1.74;70.27
26220;BME280;13955;55.574;37.474;2022-11-15T15:41:12;98986.23;;;1.72;70.18
26220;BME280;13955;55.574;37.474;2022-11-15T15:43:42;98982.80;;;1.71;70.32
26220;BME280;13955;55.574;37.474;2022-11-15T15:46:16;98972.59;;;1.72;70.36
26220;BME280;13955;55.574;37.474;2022-11-15T15:48:47;98972.56;;;1.81;70.15
26220;BME280;13955;55.574;37.474;2022-11-15T15:51:17;98972.71;;;1.83;69.87
26220;BME280;13955;55.574;37.474;2022-11-15T15:53:48;98961.89;;;1.78;70.02
26220;BME280;13955;55.574;37.474;2022-11-15T15:56:20;98961.04;;;1.82;70.19
26220;BME280;13955;55.574;37.474;2022-11-15T15:58:50;98965.48;;;1.85;70.00
26220;BME280;13955;55.574;37.474;2022-11-15T16:01:21;98953.80;;;1.88;69.96
26220;BME280;13955;55.574;37.474;2022-11-15T16:03:53;98957.09;;;1.82;70.06
26220;BME280;13955;55.574;37.474;2022-11-15T16:06:38;98959.38;;;1.89;70.15
26220;BME280;13955;55.574;37.474;2022-11-15T16:09:14;98942.74;;;1.92;69.99
26220;BME280;13955;55.574;37.474;2022-11-15T16:11:46;98937.84;;;1.89;70.03
26220;BME280;13955;55.574;37.474;2022-11-15T16:14:18;98942.44;;;1.87;70.22
26220;BME280;13955;55.574;37.474;2022-11-15T16:16:48;98934.86;;;1.92;70.01
26220;BME280;13955;55.574;37.474;2022-11-15T16:19:18;98928.13;;;1.94;70.16
26220;BME280;13955;55.574;37.474;2022-11-15T16:21:48;98926.96;;;1.96;69.92
26220;BME280;13955;55.574;37.474;2022-11-15T16:24:21;98930.56;;;1.95;70.25
26220;BME280;13955;55.574;37.474;2022-11-15T16:26:52;98923.17;;;1.95;70.38
26220;BME280;13955;55.574;37.474;2022-11-15T16:29:22;98926.01;;;1.89;70.52